Terminal Aerodrome Forecast
Issued by NWS Wilmington, OH

Current Version | Previous Version | Graphics & Text | Print | Product List | Glossary On
Versions: 1 2 3 4 5 6 7 8 9 10 11 12 13 14 15 16 17 18 19 20 21 22 23
526
FTUS41 KILN 092057 AAA
TAFCVG
TAF AMD
KCVG 092057Z 0921/1024 27012KT 3SM -SHSN BKN025 OVC035
      TEMPO 0921/0923 1SM -SHSN
     FM100000 28012KT P6SM VCSH SCT015 OVC025
     FM100600 28012KT 4SM -SHSN BKN015 OVC025
     FM101500 28014G20KT P6SM -SHSN SCT015 OVC025=

USA.gov is the U.S. government's official web portal to all federal, state and local government web resources and services.